Swift Arrow — WAFK — position and weather

sailwx.info

Track history (hours):
 
Tides and Currents Weather Stations Pressure Air Temp Water Temp Dewpoint Dewpoint Depression Visibility Wind Speed Wind Dir Waves Ship Positions

Swift Arrow

Owner: ARROW LAUNCH SERVICE INC, Port Angeles, WA. More information available from US FCC via Universal Licensing System and Coast Guard Vessel Documentation Center.

Last reported at 2014-Dec-21 04:33 UTC. Time now 2014-Dec-21 09:17 UTC.
Position N 47°16' W 122°27'.

Type: Port tender. MMSI: 369021000.

Date/timePositionNaut miles runAvg speedWind from/ knotsBaromVisibWave heightAir tempDewpointWater temp
2014-Dec-21 04:33N 47°16' W 122°27'1 0.0
2014-Dec-19 19:31N 47°15' W 122°26'2 1.8
2014-Dec-19 18:33N 47°17' W 122°26'1 1.1
2014-Dec-19 17:34N 47°17' W 122°25'2 0.1
2014-Dec-18 23:23N 47°15' W 122°26'2 2.7
2014-Dec-18 22:33N 47°17' W 122°26'2 1.4
2014-Dec-18 21:19N 47°17' W 122°24'5 6.0
2014-Dec-18 20:33N 47°18' W 122°30'6 4.9
2014-Dec-18 19:16N 47°16' W 122°22'2 2.7
2014-Dec-18 18:29N 47°17' W 122°24'  
2014-Dec-14 19:33N 47°17' W 122°25'1 1.1
2014-Dec-14 18:34N 47°16' W 122°26'1 0.1
2014-Dec-14 08:25N 47°15' W 122°26'2 2.0
2014-Dec-14 07:33N 47°17' W 122°25'2 0.1
2014-Dec-13 19:10N 47°15' W 122°26'1 1.7
2014-Dec-13 18:33N 47°16' W 122°26'1212.2
2014-Dec-13 17:33N 47°28' W 122°23'6 6.2
2014-Dec-13 16:33N 47°34' W 122°21'0 0.0
2014-Dec-13 15:33N 47°34' W 122°21'2 0.2
2014-Dec-13 05:34N 47°36' W 122°22'2 1.7
2014-Dec-13 04:34N 47°34' W 122°21'0 0.0
2014-Dec-12 15:33N 47°34' W 122°21'2 1.9
2014-Dec-12 14:33N 47°36' W 122°22'2 0.2
2014-Dec-12 03:33N 47°34' W 122°21'3 2.6
2014-Dec-12 02:34N 47°37' W 122°22'1 1.3
2014-Dec-12 01:33N 47°38' W 122°23'3 2.8
2014-Dec-12 00:33N 47°36' W 122°26'3 3.4
2014-Dec-11 23:33N 47°35' W 122°21'4 3.8
2014-Dec-11 22:34N 47°33' W 122°25'1413.8
2014-Dec-11 21:34N 47°19' W 122°27'3 1.5
2014-Dec-11 19:26N 47°17' W 122°23'5 5.6
2014-Dec-11 18:33N 47°18' W 122°30'0 0.2
2014-Dec-11 17:33N 47°18' W 122°30'0 0.1
2014-Dec-11 16:33N 47°18' W 122°30'5 3.9
2014-Dec-11 15:12N 47°16' W 122°23'  
Track history (hours):
 
Tides and Currents Weather Stations Pressure Air Temp Water Temp Dewpoint Dewpoint Depression Visibility Wind Speed Wind Dir Waves Ship Positions

Swift Arrow

Owner: ARROW LAUNCH SERVICE INC, Port Angeles, WA. More information available from US FCC via Universal Licensing System and Coast Guard Vessel Documentation Center.

Last reported at 2014-Dec-21 04:33 UTC. Time now 2014-Dec-21 09:17 UTC.
Position N 47°16' W 122°27'.

Type: Port tender. MMSI: 369021000.

Date/timePositionNaut miles runAvg speedWind from/ knotsBaromVisibWave heightAir tempDewpointWater temp
2014-Dec-21 04:33N 47°16' W 122°27'1 0.0
2014-Dec-19 19:31N 47°15' W 122°26'2 1.8
2014-Dec-19 18:33N 47°17' W 122°26'1 1.1
2014-Dec-19 17:34N 47°17' W 122°25'2 0.1
2014-Dec-18 23:23N 47°15' W 122°26'2 2.7
2014-Dec-18 22:33N 47°17' W 122°26'2 1.4
2014-Dec-18 21:19N 47°17' W 122°24'5 6.0
2014-Dec-18 20:33N 47°18' W 122°30'6 4.9
2014-Dec-18 19:16N 47°16' W 122°22'2 2.7
2014-Dec-18 18:29N 47°17' W 122°24'  
2014-Dec-14 19:33N 47°17' W 122°25'1 1.1
2014-Dec-14 18:34N 47°16' W 122°26'1 0.1
2014-Dec-14 08:25N 47°15' W 122°26'2 2.0
2014-Dec-14 07:33N 47°17' W 122°25'2 0.1
2014-Dec-13 19:10N 47°15' W 122°26'1 1.7
2014-Dec-13 18:33N 47°16' W 122°26'1212.2
2014-Dec-13 17:33N 47°28' W 122°23'6 6.2
2014-Dec-13 16:33N 47°34' W 122°21'0 0.0
2014-Dec-13 15:33N 47°34' W 122°21'2 0.2
2014-Dec-13 05:34N 47°36' W 122°22'2 1.7
2014-Dec-13 04:34N 47°34' W 122°21'0 0.0
2014-Dec-12 15:33N 47°34' W 122°21'2 1.9
2014-Dec-12 14:33N 47°36' W 122°22'2 0.2
2014-Dec-12 03:33N 47°34' W 122°21'3 2.6
2014-Dec-12 02:34N 47°37' W 122°22'1 1.3
2014-Dec-12 01:33N 47°38' W 122°23'3 2.8
2014-Dec-12 00:33N 47°36' W 122°26'3 3.4
2014-Dec-11 23:33N 47°35' W 122°21'4 3.8
2014-Dec-11 22:34N 47°33' W 122°25'1413.8
2014-Dec-11 21:34N 47°19' W 122°27'3 1.5
2014-Dec-11 19:26N 47°17' W 122°23'5 5.6
2014-Dec-11 18:33N 47°18' W 122°30'0 0.2
2014-Dec-11 17:33N 47°18' W 122°30'0 0.1
2014-Dec-11 16:33N 47°18' W 122°30'5 3.9
2014-Dec-11 15:12N 47°16' W 122°23'  

Dump ship's entire track history